Ana Sayfa
METAR-TAF:

METAR-TAF

Havaalanları :

Nakhon Ratchasima, Tayland

Enlem: 14-56-58N, Boylam: 102-18-45E, yükseklik: 233 m

Güncel hava durumu gözlemi

Rapor saat 14:00 UTC de 7 saat ve 46 dakika önce yapıldı.
Sakin rüzgar
Sıcaklık 24°C
Nem 44%
Basınç 1014 hPa
Görüş mesafesi: 9000 m

METAR: VTUQ 241400Z 00000KT 9000 NSC 24/11 Q1014 NOSIG

Saat: 04:46 (21:46 UTC)

Tahmin

Rapor saat 17:00 UTC de 4 saat ve 46 dakika önce yapıldı.
Ayın 24'si saat 18 UTC'den ayın 25'si saat 18 UTC'ye kadar geçerli Tahmin
Rüzgar kuzeydan 5 kt
Görüş mesafesi: 9000 m

TAF: VTUQ 241700Z 2418/2518 01005KT 9000 NSC

4.000'den fazla havaalanı için hava durumu gözlemleri ve tahminleri (METAR ve TAF raporları).

Kullanılabilir istasyonlar harita üzerinde sarı ve kırmızı noktalarla gösterilir.

İstasyonun adını görmek için fareyi noktanın üzerinde gezdirin.

Sonrasında hava gözlem ve tahminlerini görmek için tıklayın.

Haritayı değiştirmek için: yaklaştırmak için siyah artı işaretli yeşil düğmeye ve uzaklaştırmak için de eksi işaretli düğmeye hızla tıklayın; bitişik haritalar için yeşil okları kullanın.


METAR-TAF: